createdAt,value
2022-09-09T00:01:11.311Z,5.58
2022-09-09T00:03:42.818Z,7.42
2022-09-09T00:06:14.351Z,4.00
2022-09-09T00:08:47.011Z,4.78
2022-09-09T00:11:36.066Z,5.55
2022-09-09T00:14:07.392Z,7.30
2022-09-09T00:16:38.688Z,4.22
2022-09-09T00:19:10.230Z,9.45
2022-09-09T00:21:42.148Z,8.33
2022-09-09T00:24:13.506Z,4.85
2022-09-09T00:26:43.317Z,13.03
2022-09-09T00:29:14.784Z,7.78
2022-09-09T00:31:45.870Z,8.50
2022-09-09T00:34:18.351Z,21.35
2022-09-09T00:36:48.662Z,14.03
2022-09-09T00:39:20.165Z,16.55
2022-09-09T00:41:51.612Z,19.52
2022-09-09T00:44:21.471Z,35.15
2022-09-09T00:46:53.003Z,26.10
2022-09-09T00:49:24.529Z,17.70
2022-09-09T00:51:54.406Z,11.70
2022-09-09T00:54:26.655Z,9.63
2022-09-09T00:56:58.376Z,8.15
2022-09-09T00:59:29.992Z,5.75
2022-09-09T01:02:00.623Z,8.05
2022-09-09T01:04:33.087Z,5.67
2022-09-09T01:07:04.798Z,7.60
2022-09-09T01:09:36.668Z,7.05
2022-09-09T01:12:06.580Z,6.92
2022-09-09T01:14:39.498Z,4.85
2022-09-09T01:17:11.616Z,5.95
2022-09-09T01:19:43.474Z,6.20
2022-09-09T01:22:13.865Z,5.58
2022-09-09T01:24:45.282Z,5.72
2022-09-09T01:27:16.532Z,9.83
2022-09-09T01:29:46.600Z,8.28
2022-09-09T01:32:17.868Z,7.65
2022-09-09T01:34:48.296Z,5.30
2022-09-09T01:37:18.485Z,7.37
2022-09-09T01:39:48.753Z,7.47
2022-09-09T01:42:19.594Z,7.83
2022-09-09T01:44:49.708Z,5.95
2022-09-09T01:47:20.226Z,7.78
2022-09-09T01:49:50.560Z,6.30
2022-09-09T01:52:20.725Z,8.63
2022-09-09T01:54:50.890Z,5.60
2022-09-09T01:57:24.775Z,4.80
2022-09-09T02:00:00.930Z,6.55
2022-09-09T02:02:33.423Z,6.03
2022-09-09T02:05:04.832Z,4.20
2022-09-09T02:07:36.259Z,4.95
2022-09-09T02:10:07.828Z,7.92
2022-09-09T02:12:39.199Z,4.72
2022-09-09T02:15:10.584Z,6.50
2022-09-09T02:17:42.055Z,3.95
2022-09-09T02:20:13.397Z,7.33
2022-09-09T02:22:44.831Z,3.90
2022-09-09T02:25:16.312Z,3.47
2022-09-09T02:27:47.944Z,3.62
2022-09-09T02:30:18.295Z,7.85
2022-09-09T02:32:49.411Z,3.87
2022-09-09T02:35:22.967Z,3.80
2022-09-09T02:37:56.178Z,4.25
2022-09-09T02:40:26.537Z,5.50
2022-09-09T02:42:57.352Z,5.95
2022-09-09T02:45:29.630Z,5.22
2022-09-09T02:48:01.041Z,4.37
2022-09-09T02:50:32.344Z,5.25
2022-09-09T02:53:03.735Z,4.78
2022-09-09T02:55:35.030Z,6.78
2022-09-09T02:58:07.801Z,5.90
2022-09-09T03:00:39.426Z,4.95
2022-09-09T03:03:12.148Z,4.72
2022-09-09T03:05:44.107Z,7.65
2022-09-09T03:08:15.196Z,4.70
2022-09-09T03:10:50.044Z,4.40
2022-09-09T03:13:21.543Z,3.80
2022-09-09T03:15:51.879Z,4.05
2022-09-09T03:18:22.142Z,7.87
2022-09-09T03:20:53.243Z,4.37
2022-09-09T03:23:24.018Z,3.98
2022-09-09T03:25:54.313Z,4.05
2022-09-09T03:28:25.359Z,5.10
2022-09-09T03:30:57.102Z,4.50
2022-09-09T03:33:27.232Z,4.35
2022-09-09T03:35:58.614Z,3.87
2022-09-09T03:38:31.235Z,4.40
2022-09-09T03:41:01.560Z,4.00
2022-09-09T03:43:32.194Z,3.75
2022-09-09T03:46:02.324Z,3.80
2022-09-09T03:48:35.334Z,5.15
2022-09-09T03:51:05.623Z,7.15
2022-09-09T03:53:36.510Z,4.70
2022-09-09T03:56:08.629Z,7.78
2022-09-09T03:58:39.722Z,5.17
2022-09-09T04:01:15.376Z,4.25
2022-09-09T04:03:45.587Z,3.92
2022-09-09T04:06:20.175Z,3.87
2022-09-09T04:08:53.770Z,2.42
2022-09-09T04:11:23.491Z,2.37
2022-09-09T04:13:53.703Z,2.00
2022-09-09T04:16:23.878Z,1.75
2022-09-09T04:18:55.373Z,2.02
2022-09-09T04:21:27.643Z,2.33
2022-09-09T04:23:59.198Z,2.17
2022-09-09T04:26:29.503Z,2.55
2022-09-09T04:29:02.625Z,2.80
2022-09-09T04:31:33.571Z,3.77
2022-09-09T04:34:07.469Z,3.10
2022-09-09T04:36:38.368Z,3.90
2022-09-09T04:39:08.415Z,2.85
2022-09-09T04:41:44.822Z,2.55
2022-09-09T04:44:17.955Z,3.37
2022-09-09T04:46:48.053Z,2.72
2022-09-09T04:49:20.570Z,2.27
2022-09-09T04:51:55.414Z,2.08
2022-09-09T04:54:26.255Z,2.27
2022-09-09T04:56:57.075Z,2.70
2022-09-09T04:59:32.291Z,3.87
2022-09-09T05:02:03.095Z,1.90
2022-09-09T05:04:33.135Z,2.77
2022-09-09T05:07:06.018Z,4.97
2022-09-09T05:09:36.843Z,3.55
2022-09-09T05:12:08.486Z,3.95
2022-09-09T05:14:39.892Z,3.02
2022-09-09T05:17:10.130Z,4.17
2022-09-09T05:19:43.702Z,3.22
2022-09-09T05:22:15.406Z,4.15
2022-09-09T05:24:48.674Z,4.55
2022-09-09T05:27:21.027Z,3.50
2022-09-09T05:29:50.341Z,4.10
2022-09-09T05:32:20.567Z,3.22
2022-09-09T05:34:53.653Z,5.25
2022-09-09T05:37:27.738Z,5.20
2022-09-09T05:40:00.850Z,4.65
2022-09-09T05:42:32.856Z,3.05
2022-09-09T05:45:03.055Z,8.20
2022-09-09T05:47:33.364Z,7.53
2022-09-09T05:50:06.454Z,4.10
2022-09-09T05:52:36.531Z,2.77
2022-09-09T05:55:08.744Z,5.58
2022-09-09T05:57:38.926Z,2.87
2022-09-09T06:00:12.156Z,4.35
2022-09-09T06:02:46.585Z,3.80
2022-09-09T06:05:17.523Z,3.98
2022-09-09T06:07:47.825Z,4.62
2022-09-09T06:10:20.393Z,3.95
2022-09-09T06:12:52.264Z,2.87
2022-09-09T06:15:22.178Z,3.83
2022-09-09T06:17:53.626Z,2.50
2022-09-09T06:20:28.759Z,4.20
2022-09-09T06:23:02.619Z,2.95
2022-09-09T06:25:39.087Z,3.00
2022-09-09T06:28:10.512Z,2.33
2022-09-09T06:30:40.628Z,2.05
2022-09-09T06:33:15.822Z,4.70
2022-09-09T06:35:43.223Z,1.85
2022-09-09T06:38:14.293Z,2.42
2022-09-09T06:40:45.376Z,3.40
2022-09-09T06:43:16.450Z,5.45
2022-09-09T06:45:47.182Z,1.98
2022-09-09T06:48:17.415Z,1.40
2022-09-09T06:50:47.861Z,1.57
2022-09-09T06:53:20.539Z,3.37
2022-09-09T06:55:50.764Z,2.83
2022-09-09T06:58:20.941Z,1.57
2022-09-09T07:00:57.477Z,2.35
2022-09-09T07:03:37.491Z,2.83
2022-09-09T07:06:08.296Z,3.65
2022-09-09T07:08:38.357Z,1.92
2022-09-09T07:11:12.201Z,2.62
2022-09-09T07:13:41.155Z,2.37
2022-09-09T07:16:12.914Z,1.98
2022-09-09T07:18:44.034Z,2.12
2022-09-09T07:21:15.170Z,1.98
2022-09-09T07:23:45.334Z,2.60
2022-09-09T07:26:17.207Z,4.05
2022-09-09T07:28:47.616Z,3.45
2022-09-09T07:31:19.590Z,2.15
2022-09-09T07:33:50.899Z,2.52
2022-09-09T07:36:23.671Z,1.85
2022-09-09T07:38:54.869Z,2.40
2022-09-09T07:41:26.752Z,2.75
2022-09-09T07:43:57.011Z,2.27
2022-09-09T07:46:29.016Z,2.00
2022-09-09T07:49:00.790Z,2.47
2022-09-09T07:51:32.772Z,2.52
2022-09-09T07:54:05.681Z,2.17
2022-09-09T07:56:36.204Z,1.60
2022-09-09T07:59:08.660Z,1.80
2022-09-09T08:01:41.282Z,1.90
2022-09-09T08:04:14.163Z,1.92
2022-09-09T08:06:45.570Z,2.50
2022-09-09T08:09:15.997Z,2.27
2022-09-09T08:11:46.993Z,1.15
2022-09-09T08:14:17.227Z,1.22
2022-09-09T08:16:48.621Z,1.85
2022-09-09T08:19:20.419Z,1.12
2022-09-09T08:21:51.650Z,1.15
2022-09-09T08:24:22.187Z,1.82
2022-09-09T08:26:52.322Z,1.95
2022-09-09T08:29:22.630Z,2.22
2022-09-09T08:31:55.683Z,2.77
2022-09-09T08:34:27.940Z,3.40
2022-09-09T08:36:58.394Z,4.40
2022-09-09T08:39:28.634Z,2.77
2022-09-09T08:42:01.407Z,1.75
2022-09-09T08:44:33.138Z,1.60
2022-09-09T08:47:04.637Z,1.92
2022-09-09T08:49:35.957Z,1.75
2022-09-09T08:52:08.032Z,1.95
2022-09-09T08:54:51.624Z,1.30
2022-09-09T08:57:12.880Z,3.77
2022-09-09T08:59:43.221Z,2.75
2022-09-09T09:02:16.785Z,2.85
2022-09-09T09:04:46.857Z,2.83
2022-09-09T09:07:18.314Z,2.20
2022-09-09T09:09:49.695Z,2.08
2022-09-09T09:12:21.051Z,4.97
2022-09-09T09:14:51.835Z,4.17
2022-09-09T09:17:23.470Z,6.72
2022-09-09T09:19:53.661Z,3.62
2022-09-09T09:22:26.681Z,2.25
2022-09-09T09:24:58.551Z,2.60
2022-09-09T09:27:30.766Z,2.60
2022-09-09T09:30:22.936Z,3.60
2022-09-09T09:32:34.800Z,2.90
2022-09-09T09:35:06.799Z,1.98
2022-09-09T09:37:37.656Z,2.90
2022-09-09T09:40:12.050Z,2.55
2022-09-09T09:42:43.729Z,3.10
2022-09-09T09:45:15.014Z,2.67
2022-09-09T09:47:46.605Z,3.22
2022-09-09T09:50:18.204Z,3.65
2022-09-09T09:52:49.704Z,2.70
2022-09-09T09:55:20.199Z,4.65
2022-09-09T09:57:50.548Z,2.98
2022-09-09T10:00:23.051Z,6.33
2022-09-09T10:02:54.796Z,3.35
2022-09-09T10:05:28.003Z,4.03
2022-09-09T10:07:59.973Z,2.42
2022-09-09T10:10:31.443Z,2.92
2022-09-09T10:13:05.921Z,3.45
2022-09-09T10:15:37.243Z,3.90
2022-09-09T10:18:07.191Z,2.45
2022-09-09T10:20:38.664Z,4.12
2022-09-09T10:23:10.148Z,5.70
2022-09-09T10:25:42.999Z,3.45
2022-09-09T10:28:12.715Z,2.83
2022-09-09T10:30:45.181Z,1.70
2022-09-09T10:33:15.813Z,3.52
2022-09-09T10:35:48.001Z,3.05
2022-09-09T10:38:17.995Z,2.95
2022-09-09T10:40:53.126Z,3.02
2022-09-09T10:43:24.511Z,4.97
2022-09-09T10:45:58.711Z,4.10
2022-09-09T10:48:31.244Z,4.95
2022-09-09T10:51:05.413Z,4.08
2022-09-09T10:53:41.581Z,3.92
2022-09-09T10:56:13.143Z,4.05
2022-09-09T10:58:43.630Z,3.67
2022-09-09T11:01:16.383Z,3.67
2022-09-09T11:03:47.047Z,5.60
2022-09-09T11:12:10.803Z,3.17
2022-09-09T11:14:42.562Z,5.20
2022-09-09T11:17:14.472Z,3.58
2022-09-09T11:19:46.358Z,4.67
2022-09-09T11:22:20.371Z,7.05
2022-09-09T11:24:50.720Z,3.62
2022-09-09T11:27:22.293Z,5.00
2022-09-09T11:29:56.650Z,4.42
2022-09-09T11:32:28.323Z,5.17
2022-09-09T11:35:01.558Z,4.65
2022-09-09T11:37:32.580Z,6.75
2022-09-09T11:40:05.295Z,4.50
2022-09-09T11:42:39.514Z,4.42
2022-09-09T11:45:10.852Z,4.10
2022-09-09T11:47:41.618Z,7.37
2022-09-09T11:50:11.597Z,5.10
2022-09-09T11:52:45.536Z,7.97
2022-09-09T11:55:16.962Z,7.25
2022-09-09T11:57:49.676Z,8.80
2022-09-09T12:00:21.341Z,8.00
2022-09-09T12:02:52.637Z,4.33
2022-09-09T12:05:24.313Z,7.97
2022-09-09T12:07:57.248Z,9.95
2022-09-09T12:10:27.271Z,7.92
2022-09-09T12:13:00.536Z,5.03
2022-09-09T12:15:34.230Z,6.62
2022-09-09T12:18:05.732Z,9.30
2022-09-09T12:20:40.622Z,8.15
2022-09-09T12:23:10.866Z,8.13
2022-09-09T12:25:42.198Z,7.72
2022-09-09T12:28:13.540Z,22.90
2022-09-09T12:30:46.745Z,11.88
2022-09-09T12:33:18.140Z,7.80
2022-09-09T12:35:50.924Z,7.17
2022-09-09T12:38:22.232Z,7.03
2022-09-09T12:40:53.867Z,5.92
2022-09-09T12:43:25.215Z,5.12
2022-09-09T12:45:59.721Z,7.78
2022-09-09T12:48:30.794Z,7.72
2022-09-09T12:51:03.555Z,8.78
2022-09-09T12:53:37.630Z,7.95
2022-09-09T12:56:10.368Z,7.70
2022-09-09T12:58:42.647Z,7.83
2022-09-09T13:01:36.035Z,8.63
2022-09-09T13:04:27.512Z,10.18
2022-09-09T13:06:50.703Z,7.83
2022-09-09T13:09:29.619Z,6.87
2022-09-09T13:12:07.965Z,6.70
2022-09-09T13:14:49.429Z,6.95
2022-09-09T13:17:29.806Z,5.90
2022-09-09T13:20:03.672Z,6.58
2022-09-09T13:22:44.101Z,5.12
2022-09-09T13:25:15.657Z,6.50
2022-09-09T13:27:49.667Z,7.75
2022-09-09T13:30:27.138Z,8.65
2022-09-09T13:33:01.094Z,6.83
2022-09-09T13:35:32.860Z,8.53
2022-09-09T13:38:06.417Z,8.45
2022-09-09T13:40:36.930Z,7.85
2022-09-09T13:43:07.677Z,8.70
2022-09-09T13:45:38.770Z,9.08
2022-09-09T13:48:12.613Z,10.05
2022-09-09T13:50:43.717Z,8.33
2022-09-09T13:53:15.159Z,11.12
2022-09-09T13:55:53.167Z,9.23
2022-09-09T13:58:22.373Z,12.18
2022-09-09T14:00:57.909Z,7.95
2022-09-09T14:03:27.522Z,6.70
2022-09-09T14:05:58.860Z,13.20
2022-09-09T14:08:34.073Z,8.50
2022-09-09T14:11:04.784Z,9.68
2022-09-09T14:13:43.157Z,8.05
2022-09-09T14:16:17.554Z,10.32
2022-09-09T14:18:48.103Z,8.70
2022-09-09T14:21:20.043Z,9.55
2022-09-09T14:23:54.065Z,7.03
2022-09-09T14:26:25.702Z,5.75
2022-09-09T14:28:56.278Z,11.20
2022-09-09T14:31:29.762Z,10.35
2022-09-09T14:34:18.590Z,6.47
2022-09-09T14:36:46.426Z,9.05
2022-09-09T14:39:19.115Z,8.30
2022-09-09T14:41:49.304Z,5.55
2022-09-09T14:44:19.510Z,6.15
2022-09-09T14:46:52.804Z,8.13
2022-09-09T14:49:23.226Z,8.48
2022-09-09T14:51:55.831Z,6.15
2022-09-09T14:54:26.127Z,7.28
2022-09-09T14:56:56.221Z,7.55
2022-09-09T14:59:26.476Z,5.92
2022-09-09T15:01:56.877Z,5.12
2022-09-09T15:04:29.891Z,6.87
2022-09-09T15:07:03.594Z,8.33
2022-09-09T15:09:35.141Z,5.25
2022-09-09T15:12:06.939Z,7.70
2022-09-09T15:14:40.289Z,9.73
2022-09-09T15:17:10.522Z,7.58
2022-09-09T15:19:43.612Z,5.75
2022-09-09T15:22:14.014Z,7.95
2022-09-09T15:24:44.099Z,5.83
2022-09-09T15:27:17.849Z,7.17
2022-09-09T15:29:49.581Z,6.92
2022-09-09T15:32:19.851Z,7.28
2022-09-09T15:34:50.857Z,5.67
2022-09-09T15:37:20.856Z,5.90
2022-09-09T15:39:53.721Z,8.30
2022-09-09T15:42:25.336Z,9.03
2022-09-09T15:44:55.514Z,6.37
2022-09-09T15:47:26.838Z,5.83
2022-09-09T15:49:59.693Z,5.70
2022-09-09T15:52:30.939Z,6.42
2022-09-09T15:55:02.427Z,6.40
2022-09-09T15:57:32.492Z,4.60
2022-09-09T16:00:03.940Z,10.78
2022-09-09T16:02:35.197Z,8.48
2022-09-09T16:05:07.335Z,5.20
2022-09-09T16:07:37.251Z,9.03
2022-09-09T16:10:10.493Z,7.60
2022-09-09T16:12:42.247Z,6.55
2022-09-09T16:15:12.462Z,10.08
2022-09-09T16:17:45.758Z,7.03
2022-09-09T16:20:17.113Z,7.42
2022-09-09T16:22:47.609Z,6.55
2022-09-09T16:25:17.959Z,8.13
2022-09-09T16:27:48.493Z,5.78
2022-09-09T16:30:20.276Z,4.45
2022-09-09T16:32:51.595Z,5.50
2022-09-09T16:35:25.137Z,8.13
2022-09-09T16:37:55.352Z,6.65
2022-09-09T16:40:27.744Z,6.58
2022-09-09T16:43:02.229Z,7.70
2022-09-09T16:45:35.711Z,5.30
2022-09-09T16:48:09.086Z,6.83
2022-09-09T16:50:42.423Z,6.35
2022-09-09T16:53:14.021Z,6.78
2022-09-09T16:55:44.641Z,4.45
2022-09-09T16:58:14.892Z,8.50
2022-09-09T17:00:47.115Z,7.62
2022-09-09T17:03:18.537Z,7.60
2022-09-09T17:05:52.038Z,5.92
2022-09-09T17:08:22.220Z,6.03
2022-09-09T17:10:58.220Z,6.20
2022-09-09T17:13:27.409Z,7.55
2022-09-09T17:16:02.770Z,6.05
2022-09-09T17:18:31.252Z,8.15
2022-09-09T17:21:04.466Z,6.80
2022-09-09T17:23:38.670Z,5.87
2022-09-09T17:26:16.567Z,5.75
2022-09-09T17:28:54.150Z,5.65
2022-09-09T17:31:26.596Z,8.13
2022-09-09T17:36:50.417Z,5.05
2022-09-09T17:39:20.669Z,7.20
2022-09-09T17:41:51.259Z,6.40
2022-09-09T17:44:22.564Z,5.55
2022-09-09T17:46:54.162Z,7.37
2022-09-09T17:49:28.485Z,5.78
2022-09-09T17:52:01.749Z,5.60
2022-09-09T17:54:32.003Z,3.52
2022-09-09T17:57:04.800Z,5.45
2022-09-09T17:59:35.004Z,4.40
2022-09-09T18:02:07.002Z,5.97
2022-09-09T18:04:38.311Z,6.83
2022-09-09T18:07:11.198Z,5.87
2022-09-09T18:09:42.135Z,6.85
2022-09-09T18:12:12.244Z,7.20
2022-09-09T18:14:42.580Z,8.30
2022-09-09T18:17:15.111Z,6.28
2022-09-09T18:19:45.236Z,8.18
2022-09-09T18:22:17.394Z,8.00
2022-09-09T18:24:48.261Z,6.37
2022-09-09T18:27:18.605Z,7.20
2022-09-09T18:29:49.443Z,6.53
2022-09-09T18:32:21.285Z,8.45
2022-09-09T18:34:55.522Z,6.47
2022-09-09T18:37:24.106Z,5.90
2022-09-09T18:39:54.245Z,3.87
2022-09-09T18:42:25.146Z,6.40
2022-09-09T18:44:55.312Z,7.25
2022-09-09T18:47:26.161Z,5.50
2022-09-09T18:49:56.648Z,7.75
2022-09-09T18:52:26.895Z,7.83
2022-09-09T18:54:57.207Z,7.33
2022-09-09T18:57:27.580Z,13.68
2022-09-09T18:59:59.520Z,8.15
2022-09-09T19:02:32.989Z,9.18
2022-09-09T19:05:04.797Z,10.05
2022-09-09T19:07:35.398Z,7.17
2022-09-09T19:10:06.024Z,8.15
2022-09-09T19:12:37.559Z,8.15
2022-09-09T19:15:08.205Z,6.90
2022-09-09T19:17:41.251Z,6.67
2022-09-09T19:20:11.900Z,7.12
2022-09-09T19:22:42.236Z,6.40
2022-09-09T19:25:12.661Z,7.40
2022-09-09T19:27:44.198Z,9.08
2022-09-09T19:30:14.856Z,11.57
2022-09-09T19:32:53.838Z,11.33
2022-09-09T19:35:16.932Z,7.08
2022-09-09T19:37:49.826Z,8.08
2022-09-09T19:40:21.383Z,7.05
2022-09-09T19:42:52.931Z,5.15
2022-09-09T19:45:25.122Z,9.90
2022-09-09T19:47:54.700Z,7.08
2022-09-09T19:50:25.330Z,7.60
2022-09-09T19:52:57.901Z,6.47
2022-09-09T19:55:31.171Z,9.80
2022-09-09T19:58:01.567Z,12.90
2022-09-09T20:00:32.744Z,7.08
2022-09-09T20:03:18.812Z,10.53
2022-09-09T20:05:34.640Z,6.50
2022-09-09T20:08:05.078Z,5.67
2022-09-09T20:10:36.842Z,6.83
2022-09-09T20:13:07.180Z,8.25
2022-09-09T20:15:37.522Z,7.37
2022-09-09T20:18:07.770Z,6.70
2022-09-09T20:20:43.303Z,8.00
2022-09-09T20:23:18.543Z,6.15
2022-09-09T20:25:50.954Z,11.40
2022-09-09T20:28:22.185Z,10.00
2022-09-09T20:30:53.072Z,6.75
2022-09-09T20:33:23.224Z,7.25
2022-09-09T20:35:54.622Z,9.65
2022-09-09T20:38:25.055Z,6.60
2022-09-09T20:40:55.174Z,5.22
2022-09-09T20:43:27.315Z,7.17
2022-09-09T20:46:00.954Z,8.45
2022-09-09T20:48:33.187Z,5.83
2022-09-09T20:51:04.621Z,5.35
2022-09-09T20:53:38.048Z,4.95
2022-09-09T20:56:10.792Z,5.75
2022-09-09T20:58:43.933Z,5.25
2022-09-09T21:01:18.620Z,5.08
2022-09-09T21:03:49.412Z,5.08
2022-09-09T21:06:23.620Z,4.20
2022-09-09T21:08:54.427Z,5.72
2022-09-09T21:11:25.308Z,4.75
2022-09-09T21:13:58.234Z,4.00
2022-09-09T21:16:29.130Z,7.35
2022-09-09T21:19:00.973Z,7.55
2022-09-09T21:21:31.084Z,6.65
2022-09-09T21:24:01.827Z,10.72
2022-09-09T21:26:34.111Z,9.75
2022-09-09T21:29:03.494Z,12.70
2022-09-09T21:31:34.069Z,9.08
2022-09-09T21:34:04.696Z,9.58
2022-09-09T21:36:34.935Z,10.05
2022-09-09T21:39:05.006Z,7.78
2022-09-09T21:41:35.258Z,8.48
2022-09-09T21:44:05.441Z,7.70
2022-09-09T21:46:35.689Z,10.15
2022-09-09T21:49:06.805Z,8.88
2022-09-09T21:51:36.925Z,7.92
2022-09-09T21:54:08.092Z,10.63
2022-09-09T21:56:38.205Z,13.18
2022-09-09T21:59:13.124Z,9.83
2022-09-09T22:01:43.555Z,12.03
2022-09-09T22:04:16.768Z,13.75
2022-09-09T22:06:46.886Z,13.60
2022-09-09T22:09:19.972Z,11.22
2022-09-09T22:11:50.187Z,9.70
2022-09-09T22:14:21.260Z,11.43
2022-09-09T22:16:53.338Z,10.75
2022-09-09T22:19:25.091Z,10.23
2022-09-09T22:21:57.747Z,8.33
2022-09-09T22:24:31.855Z,8.30
2022-09-09T22:27:02.379Z,7.83
2022-09-09T22:29:33.151Z,8.40
2022-09-09T22:32:04.661Z,5.10
2022-09-09T22:34:36.440Z,7.35
2022-09-09T22:37:07.109Z,6.10
2022-09-09T22:39:37.927Z,9.08
2022-09-09T22:42:11.697Z,7.60
2022-09-09T22:44:45.813Z,8.03
2022-09-09T22:47:16.026Z,10.30
2022-09-09T22:49:46.145Z,8.55
2022-09-09T22:52:18.589Z,6.45
2022-09-09T22:54:49.349Z,8.23
2022-09-09T22:57:21.618Z,9.43
2022-09-09T22:59:51.227Z,7.67
2022-09-09T23:02:22.784Z,9.60
2022-09-09T23:04:53.726Z,9.65
2022-09-09T23:07:24.554Z,10.90
2022-09-09T23:09:54.823Z,10.03
2022-09-09T23:12:26.432Z,7.60
2022-09-09T23:14:58.072Z,6.97
2022-09-09T23:17:28.528Z,9.00
2022-09-09T23:19:59.320Z,11.85
2022-09-09T23:22:33.003Z,13.53
2022-09-09T23:25:03.995Z,14.35
2022-09-09T23:27:36.580Z,10.72
2022-09-09T23:30:08.239Z,7.42
2022-09-09T23:32:38.659Z,10.63
2022-09-09T23:35:08.816Z,11.75
2022-09-09T23:37:40.392Z,10.70
2022-09-09T23:40:10.896Z,9.63
2022-09-09T23:42:44.260Z,9.55
2022-09-09T23:45:14.579Z,7.90
2022-09-09T23:47:45.007Z,6.72
2022-09-09T23:50:15.259Z,6.20
2022-09-09T23:52:45.795Z,8.08
2022-09-09T23:55:15.905Z,8.80
2022-09-09T23:57:46.303Z,5.05
